Data for 09/19/2007

Time Sea-Level Adjusted Pressure Absolute Pressure Temperature Relative Humidity Dew Point   
(mb) (inHg) (mb) (inHg) (C) (F) (%) (C) (F)
00:05 1018 30.06 847 25.01 8.2 46.7 77 4.5 40
00:10 1018 30.06 847 25.01 8.2 46.7 77 4.4 39.9
00:15 1018 30.06 847 25.01 8.1 46.5 79 4.7 40.4
00:20 1018 30.06 847 25.01 8 46.5 82 5.1 41.3
00:25 1018 30.06 847 25.01 8.1 46.6 81 5 41
00:30 1018 30.06 847 25.01 8.2 46.8 80 5 41
00:35 1018 30.06 847 25.01 8.2 46.7 80 4.9 40.7
00:40 1018 30.06 847 25.01 8.1 46.5 79 4.6 40.2
00:45 1018 30.06 847 25.01 8 46.3 81 5 41
00:50 1018 30.06 847 25.01 7.9 46.1 81 4.8 40.7
00:55 1018 30.06 847 25.01 7.8 46 80 4.6 40.3
01:00 1018 30.06 847 25.01 7.6 45.6 82 4.7 40.4
01:05 1018 30.06 847 25.01 7.3 45.1 83 4.6 40.2
01:10 1018 30.06 847 25.01 7.2 44.9 82 4.4 39.9
01:15 1018 30.06 847 25.01 7.2 44.9 82 4.3 39.7
01:20 1018 30.06 847 25.01 7.3 45.2 81 4.3 39.8
01:25 1018 30.06 847 25.01 7.4 45.3 82 4.6 40.2
01:30 1018 30.06 847 25.01 7.4 45.3 82 4.5 40.1
01:35 1018 30.06 847 25.01 7.4 45.3 81 4.3 39.8
01:40 1018 30.06 847 25.01 7.5 45.5 80 4.4 39.8
01:45 1018 30.06 847 25.01 7.4 45.4 81 4.4 40
01:50 1018 30.06 847 25.01 7.5 45.4 81 4.4 39.9
01:55 1018 30.06 847 25.01 7.5 45.4 80 4.2 39.6
02:00 1018 30.06 847 25.01 7.3 45.1 83 4.5 40.1
02:05 1018 30.06 847 25.01 7.1 44.8 83 4.4 39.9
02:10 1018 30.06 847 25.01 7.1 44.9 84 4.7 40.4
02:15 1018 30.06 847 25.01 7.1 44.8 84 4.6 40.3
02:20 1018 30.06 847 25.01 6.9 44.4 85 4.6 40.3
02:25 1018 30.06 847 25.01 6.9 44.5 86 4.7 40.5
02:30 1018 30.06 847 25.01 6.8 44.3 87 4.9 40.8
02:35 1018 30.06 847 25.01 6.8 44.2 88 4.8 40.7
02:40 1017 30.03 847 25.01 6.7 44 86 4.4 39.9
02:45 1018 30.06 847 25.01 6.8 44.2 85 4.5 40.1
02:50 1018 30.06 847 25.01 6.8 44.2 85 4.5 40
02:55 1018 30.06 847 25.01 6.8 44.2 86 4.5 40.2
03:00 1018 30.06 847 25.01 6.8 44.3 86 4.6 40.2
03:05 1018 30.06 847 25.01 6.8 44.2 85 4.5 40.1
03:10 1018 30.06 847 25.01 6.8 44.3 85 4.4 40
03:15 1018 30.06 847 25.01 6.9 44.3 85 4.5 40.1
03:20 1018 30.06 847 25.01 6.7 44 86 4.5 40
03:25 1017 30.03 847 25.01 6.6 43.9 87 4.7 40.4
03:30 1018 30.06 847 25.01 6.4 43.6 89 4.8 40.7
03:35 1018 30.06 847 25.01 6.2 43.2 89 4.5 40.1
03:40 1017 30.03 847 25.01 6.2 43.1 90 4.6 40.4
03:45 1018 30.06 847 25.01 6.2 43.2 87 4.2 39.6
03:50 1017 30.03 847 25.01 6.4 43.5 86 4.3 39.7
03:55 1018 30.06 847 25.01 6.4 43.5 89 4.8 40.6
04:00 1018 30.06 847 25.01 6.1 42.9 89 4.5 40.1
04:05 1018 30.06 847 25.01 5.9 42.6 89 4.3 39.7
04:10 1018 30.06 847 25.01 5.9 42.6 89 4.3 39.7
04:15 1018 30.06 847 25.01 5.8 42.4 90 4.2 39.6
04:20 1018 30.06 847 25.01 5.8 42.4 89 4.2 39.5
04:25 1018 30.06 847 25.01 5.9 42.6 89 4.2 39.5
04:30 1018 30.06 847 25.01 5.9 42.6 89 4.2 39.6
04:35 1018 30.06 847 25.01 5.7 42.3 89 4.1 39.3
04:40 1018 30.06 847 25.01 5.7 42.3 88 3.9 39.1
04:45 1018 30.06 847 25.01 5.7 42.3 89 4.1 39.3
04:50 1018 30.06 847 25.01 5.7 42.3 87 3.8 38.8
04:55 1018 30.06 847 25.01 5.8 42.4 87 3.7 38.7
05:00 1018 30.06 847 25.01 5.5 42 89 3.9 39
05:05 1018 30.06 847 25.01 5.3 41.5 91 3.9 39
05:10 1018 30.06 847 25.01 4.8 40.6 92 3.6 38.4
05:15 1018 30.06 847 25.01 4.5 40.1 93 3.4 38.1
05:20 1018 30.06 847 25.01 4.2 39.6 93 3.2 37.8
05:25 1018 30.06 847 25.01 4.2 39.6 92 3.1 37.5
05:30 1018 30.06 847 25.01 4.3 39.8 92 3.1 37.6
05:35 1018 30.06 847 25.01 4.4 40 90 3 37.3
05:40 1018 30.06 847 25.01 4.4 40 91 3.1 37.5
05:45 1018 30.06 847 25.01 4.3 39.7 92 3.1 37.5
05:50 1018 30.06 847 25.01 4.2 39.6 92 3 37.5
05:55 1018 30.06 847 25.01 4.3 39.7 92 3 37.5
06:00 1018 30.06 847 25.01 4.2 39.6 93 3.2 37.7
06:05 1018 30.06 847 25.01 4.3 39.7 92 3.1 37.7
06:10 1018 30.06 847 25.01 4.4 39.8 91 3 37.4
06:15 1018 30.06 847 25.01 4.3 39.8 91 2.9 37.3
06:20 1018 30.06 847 25.01 4.2 39.6 91 2.9 37.1
06:25 1018 30.06 847 25.01 4.4 40 89 2.8 37
06:30 1018 30.06 847 25.01 4.5 40.1 89 2.9 37.2
06:35 1018 30.06 847 25.01 4.7 40.5 87 2.7 36.9
06:40 1018 30.06 847 25.01 4.7 40.4 87 2.7 36.9
06:45 1018 30.06 847 25.01 4.5 40.2 87 2.6 36.7
06:50 1018 30.06 847 25.01 4.4 40 88 2.6 36.7
06:55 1018 30.06 847 25.01 4.5 40 87 2.5 36.5
07:00 1018 30.06 847 25.01 4.1 39.4 91 2.7 36.9
07:05 1018 30.06 847 25.01 3.5 38.3 92 2.3 36.2
07:10 1018 30.06 847 25.01 3.2 37.7 92 2.1 35.7
07:15 1018 30.06 847 25.01 3.2 37.7 93 2.1 35.8
07:20 1018 30.06 847 25.01 3.2 37.7 92 2 35.7
07:25 1018 30.06 847 25.01 3.4 38.1 91 2 35.7
07:30 1018 30.06 847 25.01 3.6 38.5 90 2.1 35.8
07:35 1018 30.06 847 25.01 3.7 38.6 90 2.2 36
07:40 1018 30.06 847 25.01 3.6 38.6 90 2.2 36
07:45 1018 30.06 847 25.01 3.8 38.8 90 2.2 36
07:50 1018 30.06 847 25.01 3.8 38.9 90 2.4 36.3
07:55 1018 30.06 847 25.01 4 39.2 90 2.4 36.4
08:00 1018 30.06 848 25.04 4.3 39.8 88 2.5 36.6
08:05 1018 30.06 848 25.04 4.6 40.2 88 2.7 36.8
08:10 1018 30.06 848 25.04 4.6 40.3 88 2.9 37.2
08:15 1018 30.06 848 25.04 4.7 40.5 88 2.9 37.2
08:20 1018 30.06 848 25.04 4.8 40.7 88 3 37.4
08:25 1018 30.06 848 25.04 4.9 40.8 88 3 37.4
08:30 1018 30.06 848 25.04 5 41 87 3 37.3
08:35 1018 30.06 848 25.04 5.5 41.9 85 3.2 37.7
08:40 1018 30.06 848 25.04 6.1 42.9 82 3.2 37.8
08:45 1018 30.06 848 25.04 6.6 44 81 3.6 38.5
08:50 1018 30.06 848 25.04 6.9 44.5 79 3.6 38.4
08:55 1018 30.06 848 25.04 7.2 45 77 3.5 38.4
09:00 1018 30.06 848 25.04 7.4 45.3 79 3.9 39.1
09:05 1018 30.06 848 25.04 7.4 45.4 77 3.7 38.7
09:10 1018 30.06 847 25.01 7.7 45.8 76 3.8 38.8
09:15 1018 30.06 847 25.01 8.1 46.6 73 3.6 38.5
09:20 1018 30.06 847 25.01 8.4 47.2 75 4.3 39.7
09:25 1018 30.06 847 25.01 8.7 47.6 74 4.2 39.6
09:30 1018 30.06 847 25.01 8.9 48 74 4.5 40.1
09:35 1018 30.06 847 25.01 8.5 47.3 75 4.3 39.8
09:40 1018 30.06 847 25.01 8.4 47.1 75 4.2 39.5
09:45 1018 30.06 847 25.01 8.8 47.9 72 4.1 39.4
09:50 1018 30.06 847 25.01 9.3 48.7 71 4.3 39.8
09:55 1018 30.06 847 25.01 9.4 48.9 70 4.2 39.6
10:00 1018 30.06 847 25.01 9.7 49.5 72 4.8 40.7
10:05 1018 30.06 847 25.01 9.3 48.7 74 4.8 40.7
10:10 1018 30.06 847 25.01 8.7 47.7 76 4.8 40.6
10:15 1018 30.06 847 25.01 8.4 47.2 77 4.7 40.4
10:20 1018 30.06 847 25.01 8.8 47.9 73 4.2 39.6
10:25 1018 30.06 847 25.01 8.9 48 74 4.4 40
10:30 1018 30.06 847 25.01 9.2 48.6 74 4.8 40.7
10:35 1018 30.06 847 25.01 9.2 48.5 75 5 41
10:40 1018 30.06 847 25.01 8.9 48 77 5.2 41.3
10:45 1018 30.06 847 25.01 8.8 47.9 76 4.9 40.8
10:50 1018 30.06 847 25.01 8.7 47.7 77 4.9 40.8
10:55 1018 30.06 847 25.01 8.6 47.5 78 4.9 40.8
11:00 1018 30.06 847 25.01 8.5 47.2 78 5 40.9
11:05 1018 30.06 847 25.01 8.3 47 79 4.9 40.9
11:10 1018 30.06 847 25.01 8 46.4 80 4.7 40.5
11:15 1018 30.06 847 25.01 8.1 46.5 80 4.7 40.5
11:20 1018 30.06 847 25.01 8.1 46.6 79 4.7 40.5
11:25 1018 30.06 847 25.01 8.2 46.7 79 4.8 40.6
11:30 1018 30.06 847 25.01 8.4 47.1 77 4.6 40.3
11:35 1018 30.06 847 25.01 8.4 47 78 4.8 40.6
11:40 1018 30.06 847 25.01 8.2 46.8 78 4.7 40.5
11:45 1018 30.06 847 25.01 8.3 46.9 79 4.9 40.8
11:50 1018 30.06 847 25.01 8.5 47.2 79 5 41
11:55 1018 30.06 847 25.01 8.7 47.6 78 5.1 41.1
12:00 1018 30.06 847 25.01 9 48.3 75 4.8 40.7
12:05 1018 30.06 847 25.01 9.5 49.1 73 4.9 40.8
12:10 1018 30.06 847 25.01 9.7 49.5 73 5.1 41.1
12:15 1018 30.06 847 25.01 9.8 49.7 72 5.1 41.2
12:20 1018 30.06 847 25.01 9.7 49.5 71 4.8 40.6
12:25 1018 30.06 847 25.01 9.8 49.6 70 4.7 40.4
12:30 1018 30.06 847 25.01 9.8 49.6 69 4.5 40.1
12:35 1018 30.06 847 25.01 10 50.1 68 4.5 40.1
12:40 1018 30.06 847 25.01 10.2 50.4 69 4.8 40.6
12:45 1018 30.06 847 25.01 10.2 50.3 70 4.9 40.9
12:50 1018 30.06 847 25.01 10 50 70 4.7 40.5
12:55 1018 30.06 847 25.01 10.1 50.1 70 4.8 40.7
13:00 1018 30.06 847 25.01 9.5 49.1 74 5.1 41.2
13:05 1018 30.06 847 25.01 9.3 48.8 72 4.6 40.2
13:10 1018 30.06 847 25.01 10.3 50.6 70 5.1 41.1
13:15 1018 30.06 847 25.01 11.3 52.3 65 5 41
13:20 1017 30.03 847 25.01 12 53.5 65 5.6 42
13:25 1017 30.03 847 25.01 11.8 53.3 64 5.3 41.5
13:30 1017 30.03 847 25.01 11.4 52.6 64 5 41
13:35 1018 30.06 847 25.01 11.3 52.4 66 5.3 41.5
13:40 1018 30.06 847 25.01 11.1 51.9 67 5.1 41.2
13:45 1017 30.03 847 25.01 10.9 51.5 67 5.1 41.1
13:50 1017 30.03 847 25.01 10.6 51.2 69 5.3 41.5
13:55 1017 30.03 847 25.01 10.7 51.3 68 5.2 41.3
14:00 1017 30.03 847 25.01 10.6 51 70 5.4 41.8
14:05 1017 30.03 847 25.01 10.3 50.5 76 6.2 43.1
14:10 1017 30.03 846 24.98 10 50 77 6.1 43
14:15 1017 30.03 847 25.01 10.1 50.1 76 6 42.8
14:20 1017 30.03 847 25.01 10.1 50.1 75 5.9 42.6
14:25 1017 30.03 847 25.01 9.9 49.8 74 5.4 41.8
14:30 1017 30.03 847 25.01 9.9 49.7 75 5.7 42.3
14:35 1018 30.06 847 25.01 9.9 49.8 74 5.5 41.9
14:40 1018 30.06 847 25.01 9.9 49.8 73 5.2 41.4
14:45 1018 30.06 847 25.01 9.9 49.9 71 4.9 40.9
14:50 1018 30.06 847 25.01 9.9 49.7 71 4.9 40.9
14:55 1018 30.06 847 25.01 9.8 49.7 73 5.3 41.6
15:00 1018 30.06 847 25.01 10 50 73 5.4 41.7
15:05 1018 30.06 847 25.01 9.9 49.8 74 5.5 41.9
15:10 1018 30.06 847 25.01 9.9 49.8 73 5.3 41.6
15:15 1018 30.06 847 25.01 9.9 49.8 72 5.2 41.3
15:20 1018 30.06 847 25.01 9.8 49.7 76 5.9 42.6
15:25 1018 30.06 847 25.01 9.9 49.8 76 5.9 42.5
15:30 1018 30.06 847 25.01 9.9 49.9 75 5.7 42.3
15:35 1018 30.06 847 25.01 10.1 50.3 75 6 42.7
15:40 1018 30.06 847 25.01 10.1 50.2 77 6.2 43.2
15:45 1018 30.06 847 25.01 9.9 49.9 80 6.6 43.9
15:50 1018 30.06 847 25.01 9.7 49.5 79 6.2 43.2
15:55 1018 30.06 847 25.01 9.5 49.1 80 6.2 43.2
16:00 1018 30.06 847 25.01 9.5 49.1 80 6.3 43.3
16:05 1018 30.06 847 25.01 9.5 49.2 80 6.3 43.3
16:10 1018 30.06 847 25.01 9.5 49 82 6.6 43.8
16:15 1018 30.06 847 25.01 9.4 48.9 80 6.2 43.2
16:20 1018 30.06 847 25.01 9.4 49 81 6.4 43.5
16:25 1018 30.06 847 25.01 9.5 49 82 6.6 43.8
16:30 1018 30.06 847 25.01 9.6 49.2 80 6.3 43.3
16:35 1018 30.06 847 25.01 9.4 48.9 78 5.8 42.5
16:40 1018 30.06 847 25.01 9.4 48.9 80 6.1 43
16:45 1018 30.06 847 25.01 9.5 49.1 80 6.2 43.2
16:50 1018 30.06 847 25.01 9.6 49.2 80 6.3 43.4
16:55 1018 30.06 847 25.01 9.6 49.2 80 6.2 43.2
17:00 1018 30.06 847 25.01 9.4 49 81 6.4 43.6
17:05 1018 30.06 847 25.01 9 48.3 82 6.2 43.1
17:10 1018 30.06 847 25.01 8.6 47.6 84 6.1 43
17:15 1018 30.06 847 25.01 8.8 47.8 85 6.3 43.4
17:20 1018 30.06 847 25.01 8.9 48 85 6.5 43.7
17:25 1018 30.06 847 25.01 9.1 48.3 84 6.5 43.8
17:30 1018 30.06 847 25.01 9.2 48.5 84 6.6 43.9
17:35 1018 30.06 847 25.01 9.2 48.6 84 6.7 44.1
17:40 1018 30.06 847 25.01 9.3 48.7 85 6.9 44.4
17:45 1018 30.06 847 25.01 9.3 48.7 85 6.9 44.4
17:50 1018 30.06 847 25.01 9 48.2 86 6.8 44.2
17:55 1018 30.06 847 25.01 9 48.1 85 6.7 44
18:00 1018 30.06 847 25.01 9 48.2 85 6.6 43.9
18:05 1018 30.06 847 25.01 8.9 48 86 6.6 44
18:10 1018 30.06 847 25.01 8.7 47.6 87 6.6 43.8
18:15 1018 30.06 847 25.01 8.3 46.9 89 6.5 43.8
18:20 1018 30.06 847 25.01 8.6 47.4 85 6.2 43.2
18:25 1018 30.06 847 25.01 8.7 47.6 84 6.2 43.2
18:30 1018 30.06 847 25.01 8.4 47.2 87 6.4 43.5
18:35 1018 30.06 847 25.01 8.2 46.8 89 6.5 43.6
18:40 1018 30.06 847 25.01 8.3 46.9 87 6.3 43.3
18:45 1018 30.06 847 25.01 8.3 47 87 6.3 43.4
18:50 1018 30.06 847 25.01 8.4 47.2 87 6.4 43.5
18:55 1018 30.06 847 25.01 8.3 47 88 6.4 43.5
19:00 1018 30.06 847 25.01 8.3 47 88 6.4 43.6
19:05 1018 30.06 847 25.01 8.4 47.2 87 6.4 43.5
19:10 1018 30.06 847 25.01 8.6 47.4 86 6.4 43.5
19:15 1018 30.06 847 25.01 8.7 47.7 85 6.4 43.6
19:20 1018 30.06 847 25.01 8.8 47.8 85 6.4 43.4
19:25 1018 30.06 847 25.01 8.8 47.8 86 6.5 43.7
19:30 1018 30.06 848 25.04 8.7 47.7 86 6.6 43.8
19:35 1018 30.06 848 25.04 8.8 47.8 86 6.6 43.8
19:40 1018 30.06 848 25.04 8.7 47.6 87 6.7 44.1
19:45 1018 30.06 848 25.04 8.5 47.2 88 6.6 43.8
19:50 1018 30.06 848 25.04 8.3 46.9 88 6.5 43.7
19:55 1019 30.09 848 25.04 8.1 46.5 89 6.3 43.3
20:00 1019 30.09 848 25.04 7.8 46 90 6.2 43.2
20:05 1019 30.09 848 25.04 7.6 45.6 91 6.2 43.1
20:10 1019 30.09 848 25.04 7.6 45.8 90 6.2 43.1
20:15 1019 30.09 848 25.04 7.7 45.8 90 6.1 43
20:20 1019 30.09 848 25.04 7.5 45.5 90 6 42.8
20:25 1019 30.09 848 25.04 7.4 45.3 91 6 42.8
20:30 1019 30.09 848 25.04 7.4 45.3 91 6 42.7
20:35 1019 30.09 848 25.04 7.4 45.3 90 5.9 42.6
20:40 1019 30.09 848 25.04 7.3 45.2 90 5.8 42.5
20:45 1019 30.09 848 25.04 7.4 45.3 90 5.8 42.4
20:50 1019 30.09 848 25.04 7.3 45.1 90 5.8 42.4
20:55 1019 30.09 848 25.04 7 44.6 92 5.8 42.4
21:00 1019 30.09 848 25.04 7 44.6 91 5.6 42
21:05 1019 30.09 848 25.04 6.6 43.9 93 5.6 42
21:10 1019 30.09 848 25.04 6.3 43.3 95 5.5 41.8
21:15 1019 30.09 848 25.04 6.3 43.4 94 5.4 41.7
21:20 1019 30.09 848 25.04 6.6 43.9 93 5.5 41.9
21:25 1019 30.09 848 25.04 6.8 44.2 92 5.6 42
21:30 1019 30.09 848 25.04 6.7 44 93 5.6 42.1
21:35 1019 30.09 848 25.04 6.6 43.9 92 5.4 41.8
21:40 1019 30.09 848 25.04 6.5 43.6 94 5.5 42
21:45 1019 30.09 848 25.04 6.6 43.9 93 5.5 42
21:50 1019 30.09 848 25.04 6.8 44.2 92 5.6 42
21:55 1019 30.09 848 25.04 6.9 44.4 92 5.6 42.1
22:00 1019 30.09 848 25.04 6.8 44.3 92 5.7 42.2
22:05 1019 30.09 848 25.04 6.8 44.2 92 5.6 42.1
22:10 1019 30.09 848 25.04 6.6 43.9 92 5.4 41.7
22:15 1019 30.09 848 25.04 6.3 43.4 93 5.3 41.5
22:20 1019 30.09 848 25.04 6.2 43.1 93 5.1 41.2
22:25 1019 30.09 848 25.04 6.1 42.9 93 5 41
22:30 1019 30.09 848 25.04 6 42.7 94 5 41
22:35 1019 30.09 848 25.04 6 42.8 94 5.1 41.2
22:40 1019 30.09 848 25.04 6 42.8 93 5 41
22:45 1019 30.09 848 25.04 5.8 42.5 94 4.9 40.8
22:50 1019 30.09 848 25.04 5.7 42.2 95 4.9 40.8
22:55 1019 30.09 848 25.04 5.6 42.1 95 4.8 40.6
23:00 1019 30.09 848 25.04 5.6 42.1 94 4.7 40.4
23:05 1019 30.09 848 25.04 5.6 42 94 4.7 40.4
23:10 1019 30.09 848 25.04 5.5 42 94 4.7 40.5
23:15 1019 30.09 848 25.04 5.5 41.9 95 4.7 40.5
23:20 1019 30.09 848 25.04 5.4 41.8 94 4.6 40.2
23:25 1019 30.09 848 25.04 5.3 41.6 94 4.5 40
23:30 1019 30.09 848 25.04 5.4 41.7 94 4.5 40
23:35 1019 30.09 848 25.04 5 41.1 95 4.3 39.8
23:40 1019 30.09 848 25.04 4.8 40.6 97 4.3 39.7
23:45 1019 30.09 848 25.04 4.9 40.8 97 4.4 39.9
23:50 1019 30.09 848 25.04 5.1 41.1 95 4.4 39.8
23:55 1019 30.09 848 25.04 5.1 41.2 95 4.4 40
24:00 1019 30.09 848 25.04 5.2 41.3 95 4.4 39.9